createdAt,value
2019-05-09T00:00:48.335Z,0.0000
2019-05-09T00:01:51.292Z,0.0000
2019-05-09T00:02:55.278Z,0.0000
2019-05-09T00:03:58.334Z,0.0000
2019-05-09T00:05:03.420Z,0.0000
2019-05-09T00:06:07.315Z,0.0000
2019-05-09T00:07:10.280Z,0.0000
2019-05-09T00:08:14.330Z,0.0000
2019-05-09T00:09:17.272Z,0.0000
2019-05-09T00:10:35.209Z,0.0000
2019-05-09T00:11:29.281Z,0.0000
2019-05-09T00:12:33.523Z,0.0000
2019-05-09T00:13:37.303Z,0.0000
2019-05-09T00:14:40.284Z,0.0000
2019-05-09T00:15:44.360Z,0.0000
2019-05-09T00:16:47.302Z,0.0000
2019-05-09T00:17:53.164Z,0.0000
2019-05-09T00:18:55.290Z,0.0000
2019-05-09T00:19:58.313Z,0.0000
2019-05-09T00:21:04.155Z,0.0000
2019-05-09T00:22:07.270Z,0.0000
2019-05-09T00:23:13.390Z,0.0000
2019-05-09T00:24:17.343Z,0.0000
2019-05-09T00:25:23.506Z,0.0000
2019-05-09T00:26:27.316Z,0.0000
2019-05-09T00:27:30.268Z,0.0000
2019-05-09T00:28:36.031Z,0.0000
2019-05-09T00:29:40.336Z,0.0000
2019-05-09T00:30:44.302Z,0.0000
2019-05-09T00:31:47.309Z,0.0000
2019-05-09T00:32:53.355Z,0.0000
2019-05-09T00:33:56.290Z,0.0000
2019-05-09T00:35:00.316Z,0.0000
2019-05-09T00:36:04.505Z,0.0000
2019-05-09T00:37:10.315Z,0.0000
2019-05-09T00:38:14.325Z,0.0000
2019-05-09T00:39:17.293Z,0.0000
2019-05-09T00:40:23.713Z,0.0000
2019-05-09T00:41:27.346Z,0.0000
2019-05-09T00:42:30.266Z,0.0000
2019-05-09T00:43:34.358Z,0.0000
2019-05-09T00:44:37.284Z,0.0000
2019-05-09T00:45:41.332Z,0.0000
2019-05-09T00:46:44.342Z,0.0000
2019-05-09T00:47:48.336Z,0.0000
2019-05-09T00:48:53.235Z,0.0000
2019-05-09T00:49:56.308Z,0.0000
2019-05-09T00:51:00.308Z,0.0000
2019-05-09T00:52:03.608Z,0.0000
2019-05-09T00:53:07.374Z,0.0000
2019-05-09T00:54:09.262Z,0.0000
2019-05-09T00:55:13.353Z,0.0000
2019-05-09T00:56:16.323Z,0.0000
2019-05-09T00:57:19.302Z,0.0000
2019-05-09T00:58:24.170Z,0.0000
2019-05-09T00:59:27.320Z,0.0000
2019-05-09T01:00:33.238Z,0.0000
2019-05-09T01:01:36.343Z,0.0000
2019-05-09T01:02:40.313Z,0.0000
2019-05-09T01:03:43.354Z,0.0000
2019-05-09T01:04:46.344Z,0.0000
2019-05-09T01:05:50.307Z,0.0000
2019-05-09T01:06:53.965Z,0.0000
2019-05-09T01:07:57.298Z,0.0000
2019-05-09T01:09:00.310Z,0.0000
2019-05-09T01:10:04.457Z,0.0000
2019-05-09T01:11:12.141Z,0.0000
2019-05-09T01:12:15.338Z,0.0000
2019-05-09T01:13:19.287Z,0.0000
2019-05-09T01:14:23.452Z,0.0000
2019-05-09T01:15:27.291Z,0.0000
2019-05-09T01:16:30.314Z,0.0000
2019-05-09T01:17:34.310Z,0.0000
2019-05-09T01:18:37.265Z,0.0000
2019-05-09T01:19:40.328Z,0.0000
2019-05-09T01:20:44.303Z,0.0000
2019-05-09T01:21:47.348Z,0.0000
2019-05-09T01:22:51.329Z,0.0000
2019-05-09T01:23:54.372Z,0.0000
2019-05-09T01:24:58.272Z,0.0000
2019-05-09T01:26:03.612Z,0.0000
2019-05-09T01:27:07.295Z,0.0000
2019-05-09T01:28:11.346Z,0.0000
2019-05-09T01:29:14.363Z,0.0000
2019-05-09T01:30:18.307Z,0.0000
2019-05-09T01:31:20.284Z,0.0000
2019-05-09T01:32:24.287Z,0.0000
2019-05-09T01:33:27.336Z,0.0000
2019-05-09T01:34:30.273Z,0.0000
2019-05-09T01:35:34.312Z,0.0000
2019-05-09T01:36:37.288Z,0.0000
2019-05-09T01:37:43.313Z,0.0000
2019-05-09T01:38:46.340Z,0.0000
2019-05-09T01:39:49.299Z,0.0000
2019-05-09T01:40:53.299Z,0.0000
2019-05-09T01:41:56.320Z,0.0000
2019-05-09T01:43:00.278Z,0.0000
2019-05-09T01:44:04.130Z,0.0000
2019-05-09T01:45:07.291Z,0.0000
2019-05-09T01:46:10.272Z,0.0000
2019-05-09T01:47:14.303Z,0.0000
2019-05-09T01:48:17.279Z,0.0000
2019-05-09T01:49:20.342Z,0.0000
2019-05-09T01:50:23.421Z,0.0000
2019-05-09T01:51:26.333Z,0.0000
2019-05-09T01:52:29.294Z,0.0000
2019-05-09T01:53:33.427Z,0.0000
2019-05-09T01:54:37.301Z,0.0000
2019-05-09T01:55:40.295Z,0.0000
2019-05-09T01:56:43.294Z,0.0000
2019-05-09T01:57:47.972Z,0.0000
2019-05-09T01:58:53.602Z,0.0000
2019-05-09T01:59:57.314Z,0.0000
2019-05-09T02:01:00.310Z,0.0000
2019-05-09T02:02:08.736Z,0.0000
2019-05-09T02:03:13.951Z,0.0000
2019-05-09T02:04:16.300Z,0.0000
2019-05-09T02:05:20.309Z,0.0000
2019-05-09T02:06:24.350Z,0.0000
2019-05-09T02:07:28.314Z,0.0000
2019-05-09T02:08:31.300Z,0.0000
2019-05-09T02:09:35.308Z,0.0000
2019-05-09T02:10:38.279Z,0.0000
2019-05-09T02:11:43.306Z,0.0000
2019-05-09T02:12:49.326Z,0.0000
2019-05-09T02:13:53.489Z,0.0000
2019-05-09T02:14:57.309Z,0.0000
2019-05-09T02:16:00.267Z,0.0000
2019-05-09T02:17:03.341Z,0.0000
2019-05-09T02:18:06.287Z,0.0000
2019-05-09T02:19:09.309Z,0.0000
2019-05-09T02:20:13.731Z,0.0000
2019-05-09T02:21:17.272Z,0.0000
2019-05-09T02:22:23.112Z,0.0000
2019-05-09T02:23:27.325Z,0.0000
2019-05-09T02:24:33.702Z,0.0000
2019-05-09T02:25:37.273Z,0.0000
2019-05-09T02:26:40.318Z,0.0000
2019-05-09T02:27:44.271Z,0.0000
2019-05-09T02:28:47.278Z,0.0000
2019-05-09T02:29:51.373Z,0.0000
2019-05-09T02:30:55.073Z,0.0000
2019-05-09T02:31:58.306Z,0.0000
2019-05-09T02:33:01.280Z,0.0000
2019-05-09T02:34:04.872Z,0.0000
2019-05-09T02:35:08.307Z,0.0000
2019-05-09T02:36:11.341Z,0.0000
2019-05-09T02:37:18.559Z,0.0000
2019-05-09T02:38:22.306Z,0.0000
2019-05-09T02:39:29.267Z,0.0000
2019-05-09T02:40:32.327Z,0.0000
2019-05-09T02:41:35.310Z,0.0000
2019-05-09T02:42:39.953Z,0.0000
2019-05-09T02:43:43.307Z,0.0000
2019-05-09T02:44:49.216Z,0.0000
2019-05-09T02:45:52.916Z,0.0000
2019-05-09T02:46:58.834Z,0.0000
2019-05-09T02:48:02.315Z,0.0000
2019-05-09T02:49:08.523Z,0.0000
2019-05-09T02:50:12.317Z,0.0000
2019-05-09T02:51:18.192Z,0.0000
2019-05-09T02:52:22.302Z,0.0000
2019-05-09T02:53:28.696Z,0.0000
2019-05-09T02:54:32.309Z,0.0000
2019-05-09T02:55:38.535Z,0.0000
2019-05-09T02:56:42.338Z,0.0000
2019-05-09T02:57:48.795Z,0.0000
2019-05-09T02:58:52.315Z,0.0000
2019-05-09T02:59:58.981Z,0.0000
2019-05-09T03:01:01.293Z,0.0000
2019-05-09T03:02:05.348Z,0.0000
2019-05-09T03:03:09.219Z,0.0000
2019-05-09T03:04:13.312Z,0.0000
2019-05-09T03:05:19.545Z,0.0000
2019-05-09T03:06:23.330Z,0.0000
2019-05-09T03:07:28.849Z,0.0000
2019-05-09T03:08:32.328Z,0.0000
2019-05-09T03:09:38.786Z,0.0000
2019-05-09T03:10:42.274Z,0.0000
2019-05-09T03:11:48.280Z,0.0000
2019-05-09T03:12:52.319Z,0.0000
2019-05-09T03:13:58.339Z,0.0000
2019-05-09T03:15:02.288Z,0.0000
2019-05-09T03:16:08.317Z,0.0000
2019-05-09T03:17:12.299Z,0.0000
2019-05-09T03:18:17.704Z,0.0000
2019-05-09T03:19:21.280Z,0.0000
2019-05-09T03:20:28.912Z,0.0000
2019-05-09T03:21:32.276Z,0.0000
2019-05-09T03:22:39.231Z,0.0000
2019-05-09T03:23:43.319Z,0.0000
2019-05-09T03:24:48.611Z,0.0000
2019-05-09T03:25:52.311Z,0.0000
2019-05-09T03:26:55.292Z,0.0000
2019-05-09T03:27:59.330Z,0.0000
2019-05-09T03:29:02.283Z,0.0000
2019-05-09T03:30:11.104Z,0.0000
2019-05-09T03:31:14.321Z,0.0000
2019-05-09T03:32:19.490Z,0.0000
2019-05-09T03:33:23.354Z,0.0000
2019-05-09T03:34:29.778Z,0.0000
2019-05-09T03:35:32.301Z,0.0000
2019-05-09T03:36:34.445Z,0.0000
2019-05-09T03:37:38.355Z,0.0000
2019-05-09T03:38:41.276Z,0.0000
2019-05-09T03:39:44.310Z,0.0000
2019-05-09T03:40:47.783Z,0.0000
2019-05-09T03:41:50.316Z,0.0000
2019-05-09T03:42:54.314Z,0.0000
2019-05-09T03:43:58.518Z,0.0000
2019-05-09T03:45:02.307Z,0.0000
2019-05-09T03:46:07.664Z,0.0000
2019-05-09T03:47:11.271Z,0.0000
2019-05-09T03:48:14.292Z,0.0000
2019-05-09T03:49:17.987Z,0.0000
2019-05-09T03:50:21.296Z,0.0000
2019-05-09T03:51:24.332Z,0.0000
2019-05-09T03:52:28.268Z,0.0000
2019-05-09T03:53:31.286Z,5.6250
2019-05-09T03:54:37.445Z,5.6250
2019-05-09T03:55:41.270Z,5.6250
2019-05-09T03:56:44.308Z,5.6250
2019-05-09T03:57:48.296Z,5.6250
2019-05-09T03:58:53.378Z,5.6250
2019-05-09T03:59:57.356Z,11.2500
2019-05-09T04:01:00.308Z,11.2500
2019-05-09T04:02:04.288Z,11.2500
2019-05-09T04:03:08.164Z,11.2500
2019-05-09T04:04:11.318Z,11.2500
2019-05-09T04:05:15.307Z,16.8750
2019-05-09T04:06:18.598Z,16.8750
2019-05-09T04:07:22.285Z,16.8750
2019-05-09T04:08:25.336Z,16.8750
2019-05-09T04:09:29.275Z,22.5000
2019-05-09T04:10:32.281Z,22.5000
2019-05-09T04:11:35.287Z,22.5000
2019-05-09T04:12:52.763Z,28.1250
2019-05-09T04:13:47.679Z,28.1250
2019-05-09T04:14:51.279Z,33.7500
2019-05-09T04:15:54.306Z,33.7500
2019-05-09T04:16:58.268Z,33.7500
2019-05-09T04:18:01.295Z,45.0000
2019-05-09T04:19:04.301Z,50.6250
2019-05-09T04:20:08.318Z,39.3750
2019-05-09T04:21:11.295Z,45.0000
2019-05-09T04:22:15.297Z,45.0000
2019-05-09T04:23:18.748Z,45.0000
2019-05-09T04:24:22.324Z,45.0000
2019-05-09T04:25:27.234Z,50.6250
2019-05-09T04:26:30.275Z,50.6250
2019-05-09T04:27:34.303Z,50.6250
2019-05-09T04:28:39.687Z,50.6250
2019-05-09T04:29:43.346Z,50.6250
2019-05-09T04:30:47.764Z,56.2500
2019-05-09T04:31:51.277Z,56.2500
2019-05-09T04:32:54.303Z,61.8750
2019-05-09T04:33:57.505Z,61.8750
2019-05-09T04:35:01.279Z,67.5000
2019-05-09T04:36:04.304Z,73.1250
2019-05-09T04:37:11.625Z,73.1250
2019-05-09T04:38:15.311Z,78.7500
2019-05-09T04:39:23.620Z,78.7500
2019-05-09T04:40:31.849Z,84.3750
2019-05-09T04:41:35.295Z,90.0000
2019-05-09T04:42:43.161Z,90.0000
2019-05-09T04:43:48.709Z,95.6250
2019-05-09T04:44:57.248Z,90.0000
2019-05-09T04:46:00.336Z,78.7500
2019-05-09T04:47:04.275Z,73.1250
2019-05-09T04:48:07.752Z,73.1250
2019-05-09T04:49:11.272Z,73.1250
2019-05-09T04:50:19.917Z,67.5000
2019-05-09T04:51:23.318Z,73.1250
2019-05-09T04:52:27.914Z,73.1250
2019-05-09T04:53:31.346Z,73.1250
2019-05-09T04:54:35.295Z,73.1250
2019-05-09T04:55:38.317Z,73.1250
2019-05-09T04:56:41.287Z,78.7500
2019-05-09T04:57:45.305Z,78.7500
2019-05-09T04:58:48.358Z,84.3750
2019-05-09T04:59:52.300Z,84.3750
2019-05-09T05:00:57.229Z,90.0000
2019-05-09T05:02:01.315Z,95.6250
2019-05-09T05:03:04.316Z,95.6250
2019-05-09T05:04:07.804Z,101.2500
2019-05-09T05:05:11.275Z,101.2500
2019-05-09T05:06:14.291Z,101.2500
2019-05-09T05:07:18.048Z,101.2500
2019-05-09T05:08:21.285Z,101.2500
2019-05-09T05:09:27.575Z,101.2500
2019-05-09T05:10:31.281Z,101.2500
2019-05-09T05:11:34.338Z,101.2500
2019-05-09T05:12:38.315Z,101.2500
2019-05-09T05:13:41.280Z,106.8750
2019-05-09T05:14:47.454Z,112.5000
2019-05-09T05:15:51.317Z,118.1250
2019-05-09T05:17:04.353Z,123.7500
2019-05-09T05:18:03.271Z,129.3750
2019-05-09T05:19:07.514Z,135.0000
2019-05-09T05:20:11.315Z,135.0000
2019-05-09T05:21:14.316Z,135.0000
2019-05-09T05:22:18.422Z,129.3750
2019-05-09T05:23:21.323Z,129.3750
2019-05-09T05:24:27.647Z,129.3750
2019-05-09T05:25:31.325Z,118.1250
2019-05-09T05:26:34.288Z,118.1250
2019-05-09T05:27:38.380Z,123.7500
2019-05-09T05:28:41.295Z,123.7500
2019-05-09T05:29:47.495Z,123.7500
2019-05-09T05:30:50.327Z,123.7500
2019-05-09T05:31:54.290Z,123.7500
2019-05-09T05:32:58.032Z,129.3750
2019-05-09T05:34:00.325Z,129.3750
2019-05-09T05:35:04.341Z,135.0000
2019-05-09T05:36:07.922Z,140.6250
2019-05-09T05:37:11.318Z,140.6250
2019-05-09T05:38:14.319Z,157.5000
2019-05-09T05:39:18.310Z,168.7500
2019-05-09T05:40:21.303Z,196.8750
2019-05-09T05:41:24.299Z,236.2500
2019-05-09T05:42:28.509Z,292.5000
2019-05-09T05:43:41.512Z,326.2500
2019-05-09T05:44:40.320Z,360.0000
2019-05-09T05:45:43.284Z,399.3750
2019-05-09T05:46:50.531Z,405.0000
2019-05-09T05:47:54.287Z,348.7500
2019-05-09T05:48:57.872Z,348.7500
2019-05-09T05:50:01.320Z,365.6250
2019-05-09T05:51:04.303Z,410.6250
2019-05-09T05:52:08.331Z,472.5000
2019-05-09T05:53:11.301Z,545.6250
2019-05-09T05:54:15.331Z,517.5000
2019-05-09T05:55:18.425Z,455.6250
2019-05-09T05:56:21.308Z,433.1250
2019-05-09T05:57:27.365Z,416.2500
2019-05-09T05:58:31.293Z,421.8750
2019-05-09T05:59:39.847Z,427.5000
2019-05-09T06:00:43.325Z,450.0000
2019-05-09T06:01:47.806Z,444.3750
2019-05-09T06:02:51.333Z,410.6250
2019-05-09T06:03:54.295Z,365.6250
2019-05-09T06:04:58.316Z,365.6250
2019-05-09T06:06:01.287Z,376.8750
2019-05-09T06:07:07.730Z,382.5000
2019-05-09T06:08:11.361Z,388.1250
2019-05-09T06:09:15.306Z,399.3750
2019-05-09T06:10:18.809Z,399.3750
2019-05-09T06:11:22.318Z,410.6250
2019-05-09T06:12:27.620Z,433.1250
2019-05-09T06:13:31.306Z,466.8750
2019-05-09T06:14:37.599Z,495.0000
2019-05-09T06:15:41.289Z,517.5000
2019-05-09T06:16:45.277Z,551.2500
2019-05-09T06:17:48.605Z,596.2500
2019-05-09T06:18:52.278Z,635.6250
2019-05-09T06:19:58.675Z,669.3750
2019-05-09T06:21:02.289Z,658.1250
2019-05-09T06:22:08.172Z,641.2500
2019-05-09T06:23:12.358Z,618.7500
2019-05-09T06:24:17.684Z,551.2500
2019-05-09T06:25:21.428Z,545.6250
2019-05-09T06:26:25.314Z,551.2500
2019-05-09T06:27:29.301Z,545.6250
2019-05-09T06:28:32.329Z,540.0000
2019-05-09T06:29:38.743Z,534.3750
2019-05-09T06:30:42.291Z,511.8750
2019-05-09T06:31:48.274Z,478.1250
2019-05-09T06:32:52.312Z,450.0000
2019-05-09T06:33:57.606Z,461.2500
2019-05-09T06:35:01.300Z,500.6250
2019-05-09T06:36:03.371Z,528.7500
2019-05-09T06:37:09.070Z,534.3750
2019-05-09T06:38:12.334Z,528.7500
2019-05-09T06:39:17.859Z,523.1250
2019-05-09T06:40:21.663Z,500.6250
2019-05-09T06:41:25.322Z,483.7500
2019-05-09T06:42:29.285Z,478.1250
2019-05-09T06:43:32.310Z,483.7500
2019-05-09T06:44:37.421Z,466.8750
2019-05-09T06:45:41.783Z,438.7500
2019-05-09T06:46:45.307Z,410.6250
2019-05-09T06:47:48.746Z,393.7500
2019-05-09T06:48:52.350Z,393.7500
2019-05-09T06:49:57.450Z,427.5000
2019-05-09T06:51:01.322Z,461.2500
2019-05-09T06:52:05.290Z,466.8750
2019-05-09T06:53:08.323Z,450.0000
2019-05-09T06:54:12.280Z,444.3750
2019-05-09T06:55:17.201Z,472.5000
2019-05-09T06:56:21.331Z,534.3750
2019-05-09T06:57:27.885Z,590.6250
2019-05-09T06:58:31.306Z,601.8750
2019-05-09T06:59:35.340Z,573.7500
2019-05-09T07:00:38.341Z,596.2500
2019-05-09T07:01:42.321Z,635.6250
2019-05-09T07:02:47.715Z,697.5000
2019-05-09T07:03:51.320Z,776.2500
2019-05-09T07:04:55.338Z,843.7500
2019-05-09T07:05:58.299Z,866.2500
2019-05-09T07:07:02.312Z,832.5000
2019-05-09T07:08:05.288Z,838.1250
2019-05-09T07:09:09.327Z,933.7500
2019-05-09T07:10:12.351Z,849.3750
2019-05-09T07:11:15.347Z,855.0000
2019-05-09T07:12:19.325Z,911.2500
2019-05-09T07:13:22.305Z,1012.5000
2019-05-09T07:14:31.716Z,815.6250
2019-05-09T07:15:34.299Z,663.7500
2019-05-09T07:16:38.319Z,658.1250
2019-05-09T07:17:41.270Z,675.0000
2019-05-09T07:18:44.311Z,686.2500
2019-05-09T07:19:49.069Z,686.2500
2019-05-09T07:20:52.315Z,691.8750
2019-05-09T07:21:57.941Z,680.6250
2019-05-09T07:23:01.278Z,652.5000
2019-05-09T07:24:05.334Z,562.5000
2019-05-09T07:25:11.009Z,455.6250
2019-05-09T07:26:17.496Z,388.1250
2019-05-09T07:27:21.284Z,376.8750
2019-05-09T07:28:24.325Z,365.6250
2019-05-09T07:29:28.531Z,365.6250
2019-05-09T07:30:32.307Z,354.3750
2019-05-09T07:31:37.955Z,331.8750
2019-05-09T07:32:41.311Z,354.3750
2019-05-09T07:33:44.325Z,376.8750
2019-05-09T07:34:48.330Z,410.6250
2019-05-09T07:35:51.331Z,376.8750
2019-05-09T07:36:57.932Z,320.6250
2019-05-09T07:38:01.301Z,337.5000
2019-05-09T07:39:05.281Z,360.0000
2019-05-09T07:40:08.590Z,388.1250
2019-05-09T07:41:12.267Z,450.0000
2019-05-09T07:42:17.865Z,517.5000
2019-05-09T07:43:21.294Z,562.5000
2019-05-09T07:44:25.330Z,528.7500
2019-05-09T07:45:28.328Z,438.7500
2019-05-09T07:46:32.289Z,348.7500
2019-05-09T07:47:35.334Z,320.6250
2019-05-09T07:48:38.340Z,275.6250
2019-05-09T07:49:42.304Z,225.0000
2019-05-09T07:50:45.284Z,208.1250
2019-05-09T07:51:49.307Z,208.1250
2019-05-09T07:52:52.316Z,219.3750
2019-05-09T07:53:58.706Z,236.2500
2019-05-09T07:55:02.295Z,270.0000
2019-05-09T07:56:07.715Z,286.8750
2019-05-09T07:57:11.311Z,309.3750
2019-05-09T07:58:14.531Z,331.8750
2019-05-09T07:59:18.307Z,348.7500
2019-05-09T08:00:21.335Z,354.3750
2019-05-09T08:01:27.853Z,382.5000
2019-05-09T08:02:31.312Z,416.2500
2019-05-09T08:03:34.284Z,444.3750
2019-05-09T08:04:38.593Z,450.0000
2019-05-09T08:05:42.284Z,461.2500
2019-05-09T08:06:48.620Z,472.5000
2019-05-09T08:07:52.315Z,478.1250
2019-05-09T08:08:58.136Z,517.5000
2019-05-09T08:10:02.386Z,568.1250
2019-05-09T08:11:05.311Z,556.8750
2019-05-09T08:12:09.363Z,517.5000
2019-05-09T08:13:12.329Z,534.3750
2019-05-09T08:14:17.596Z,568.1250
2019-05-09T08:15:21.330Z,652.5000
2019-05-09T08:16:27.277Z,759.3750
2019-05-09T08:17:31.319Z,826.8750
2019-05-09T08:18:34.329Z,866.2500
2019-05-09T08:19:38.325Z,821.2500
2019-05-09T08:20:41.298Z,765.0000
2019-05-09T08:21:45.333Z,736.8750
2019-05-09T08:22:57.282Z,736.8750
2019-05-09T08:23:58.014Z,703.1250
2019-05-09T08:25:01.294Z,613.1250
2019-05-09T08:26:04.688Z,573.7500
2019-05-09T08:27:08.657Z,579.3750
2019-05-09T08:28:12.324Z,635.6250
2019-05-09T08:29:17.849Z,759.3750
2019-05-09T08:30:23.321Z,894.3750
2019-05-09T08:31:28.052Z,877.5000
2019-05-09T08:32:31.314Z,888.7500
2019-05-09T08:33:34.341Z,855.0000
2019-05-09T08:34:38.349Z,815.6250
2019-05-09T08:35:41.321Z,798.7500
2019-05-09T08:36:47.605Z,832.5000
2019-05-09T08:37:51.308Z,894.3750
2019-05-09T08:38:58.357Z,945.0000
2019-05-09T08:40:02.318Z,973.1250
2019-05-09T08:41:05.327Z,990.0000
2019-05-09T08:42:09.300Z,933.7500
2019-05-09T08:43:12.383Z,815.6250
2019-05-09T08:44:18.412Z,821.2500
2019-05-09T08:45:27.832Z,911.2500
2019-05-09T08:46:30.304Z,1108.1250
2019-05-09T08:47:33.333Z,1248.7500
2019-05-09T08:48:37.635Z,1248.7500
2019-05-09T08:49:41.327Z,1237.5000
2019-05-09T08:50:44.285Z,1288.1250
2019-05-09T08:52:06.725Z,1305.0000
2019-05-09T08:52:57.595Z,1046.2500
2019-05-09T08:54:01.357Z,1051.8750
2019-05-09T08:55:04.328Z,978.7500
2019-05-09T08:56:09.049Z,967.5000
2019-05-09T08:57:14.294Z,978.7500
2019-05-09T08:58:19.633Z,1102.5000
2019-05-09T08:59:23.339Z,1186.8750
2019-05-09T09:00:28.142Z,1130.6250
2019-05-09T09:01:50.002Z,1063.1250
2019-05-09T09:02:40.336Z,1068.7500
2019-05-09T09:03:43.305Z,1108.1250
2019-05-09T09:04:48.848Z,1085.6250
2019-05-09T09:05:52.309Z,1018.1250
2019-05-09T09:06:57.652Z,1018.1250
2019-05-09T09:08:01.340Z,995.6250
2019-05-09T09:09:05.792Z,1035.0000
2019-05-09T09:10:11.299Z,1080.0000
2019-05-09T09:11:14.318Z,1125.0000
2019-05-09T09:12:29.423Z,1203.7500
2019-05-09T09:13:28.230Z,1305.0000
2019-05-09T09:14:32.281Z,1721.2500
2019-05-09T09:16:02.263Z,1968.7500
2019-05-09T09:16:43.293Z,2266.8750
2019-05-09T09:17:48.872Z,1569.3750
2019-05-09T09:18:52.291Z,1642.5000
2019-05-09T09:19:58.221Z,2171.2500
2019-05-09T09:21:02.342Z,2115.0000
2019-05-09T09:22:08.601Z,1771.8750
2019-05-09T09:23:14.364Z,1451.2500
2019-05-09T09:24:18.318Z,1406.2500
2019-05-09T09:25:21.315Z,1209.3750
2019-05-09T09:26:24.349Z,1085.6250
2019-05-09T09:27:28.319Z,950.6250
2019-05-09T09:28:31.324Z,843.7500
2019-05-09T09:29:34.323Z,798.7500
2019-05-09T09:30:38.575Z,787.5000
2019-05-09T09:31:43.313Z,787.5000
2019-05-09T09:32:47.914Z,815.6250
2019-05-09T09:33:51.299Z,826.8750
2019-05-09T09:34:55.343Z,900.0000
2019-05-09T09:35:58.340Z,1035.0000
2019-05-09T09:37:05.351Z,1085.6250
2019-05-09T09:38:10.304Z,1198.1250
2019-05-09T09:39:14.355Z,1333.1250
2019-05-09T09:40:17.797Z,1220.6250
2019-05-09T09:41:21.351Z,1181.2500
2019-05-09T09:42:28.002Z,1074.3750
2019-05-09T09:43:31.280Z,939.3750
2019-05-09T09:44:35.357Z,956.2500
2019-05-09T09:45:38.312Z,1035.0000
2019-05-09T09:46:42.336Z,3600.0000
2019-05-09T09:47:47.990Z,3948.7500
2019-05-09T09:48:51.315Z,5242.5000
2019-05-09T09:49:57.848Z,5231.2500
2019-05-09T09:51:02.308Z,5416.8750
2019-05-09T09:52:08.572Z,2649.3750
2019-05-09T09:53:12.334Z,1828.1250
2019-05-09T09:54:18.643Z,3920.6250
2019-05-09T09:55:22.381Z,5388.7500
2019-05-09T09:56:25.299Z,5428.1250
2019-05-09T09:57:29.297Z,5506.8750
2019-05-09T09:58:32.309Z,5535.0000
2019-05-09T09:59:38.570Z,838.1250
2019-05-09T10:00:44.349Z,5568.7500
2019-05-09T10:01:48.304Z,5467.5000
2019-05-09T10:02:51.374Z,1198.1250
2019-05-09T10:03:54.308Z,5703.7500
2019-05-09T10:04:58.328Z,3465.0000
2019-05-09T10:06:01.316Z,5625.0000
2019-05-09T10:07:05.303Z,5715.0000
2019-05-09T10:08:13.284Z,2593.1250
2019-05-09T10:09:17.492Z,1670.6250
2019-05-09T10:10:21.315Z,1794.3750
2019-05-09T10:11:24.308Z,3481.8750
2019-05-09T10:12:28.976Z,4179.3750
2019-05-09T10:13:32.301Z,5304.3750
2019-05-09T10:14:36.317Z,5073.7500
2019-05-09T10:15:39.271Z,5383.1250
2019-05-09T10:16:43.371Z,5231.2500
2019-05-09T10:17:47.717Z,5146.8750
2019-05-09T10:18:51.298Z,5889.3750
2019-05-09T10:19:55.304Z,6271.8750
2019-05-09T10:20:58.675Z,1704.3750
2019-05-09T10:22:02.357Z,2424.3750
2019-05-09T10:23:15.211Z,1462.5000
2019-05-09T10:24:13.290Z,1276.8750
2019-05-09T10:25:18.261Z,2503.1250
2019-05-09T10:26:22.317Z,1906.8750
2019-05-09T10:27:28.364Z,5855.6250
2019-05-09T10:28:32.280Z,1985.6250
2019-05-09T10:29:38.530Z,1726.8750
2019-05-09T10:30:42.292Z,3903.7500
2019-05-09T10:31:48.651Z,2025.0000
2019-05-09T10:32:52.303Z,1428.7500
2019-05-09T10:33:55.338Z,1068.7500
2019-05-09T10:34:59.294Z,5276.2500
2019-05-09T10:36:04.777Z,5405.6250
2019-05-09T10:37:09.405Z,5754.3750
2019-05-09T10:38:12.309Z,2660.6250
2019-05-09T10:39:18.787Z,3459.3750
2019-05-09T10:40:21.665Z,4095.0000
2019-05-09T10:41:25.291Z,1344.3750
2019-05-09T10:42:29.371Z,5816.2500
2019-05-09T10:43:38.418Z,5236.8750
2019-05-09T10:44:40.328Z,5568.7500
2019-05-09T10:45:43.306Z,5315.6250
2019-05-09T10:46:56.370Z,3054.3750
2019-05-09T10:47:57.532Z,4989.3750
2019-05-09T10:49:01.334Z,5214.3750
2019-05-09T10:50:05.300Z,1231.8750
2019-05-09T10:51:10.441Z,5124.3750
2019-05-09T10:52:14.708Z,5248.1250
2019-05-09T10:53:18.316Z,5810.6250
2019-05-09T10:54:22.321Z,5568.7500
2019-05-09T10:55:25.301Z,5394.3750
2019-05-09T10:56:28.347Z,5276.2500
2019-05-09T10:57:32.728Z,5085.0000
2019-05-09T10:58:37.398Z,5253.7500
2019-05-09T10:59:41.330Z,4640.6250
2019-05-09T11:00:44.294Z,5298.7500
2019-05-09T11:01:49.422Z,5428.1250
2019-05-09T11:02:53.301Z,1299.3750
2019-05-09T11:03:58.645Z,5928.7500
2019-05-09T11:05:02.318Z,2373.7500
2019-05-09T11:06:05.363Z,1788.7500
2019-05-09T11:07:09.321Z,1282.5000
2019-05-09T11:08:12.298Z,990.0000
2019-05-09T11:09:18.231Z,1378.1250
2019-05-09T11:10:28.387Z,1288.1250
2019-05-09T11:11:30.357Z,1575.0000
2019-05-09T11:12:34.321Z,1327.5000
2019-05-09T11:13:38.968Z,601.8750
2019-05-09T11:14:43.342Z,523.1250
2019-05-09T11:15:47.986Z,433.1250
2019-05-09T11:17:06.675Z,455.6250
2019-05-09T11:17:59.314Z,455.6250
2019-05-09T11:19:02.307Z,466.8750
2019-05-09T11:20:08.699Z,843.7500
2019-05-09T11:21:12.324Z,1310.6250
2019-05-09T11:22:15.309Z,3358.1250
2019-05-09T11:23:19.384Z,1980.0000
2019-05-09T11:24:38.788Z,894.3750
2019-05-09T11:25:31.351Z,1051.8750
2019-05-09T11:26:34.296Z,1085.6250
2019-05-09T11:27:38.870Z,1080.0000
2019-05-09T11:28:42.329Z,1316.2500
2019-05-09T11:29:49.639Z,1389.3750
2019-05-09T11:30:53.314Z,2323.1250
2019-05-09T11:31:58.756Z,5692.5000
2019-05-09T11:33:02.344Z,5518.1250
2019-05-09T11:34:04.326Z,5332.5000
2019-05-09T11:35:09.060Z,5495.6250
2019-05-09T11:36:12.612Z,5411.2500
2019-05-09T11:37:16.295Z,5225.6250
2019-05-09T11:38:33.007Z,5225.6250
2019-05-09T11:39:36.647Z,5321.2500
2019-05-09T11:40:37.658Z,5343.7500
2019-05-09T11:41:41.333Z,5383.1250
2019-05-09T11:42:45.299Z,5338.1250
2019-05-09T11:43:48.717Z,5467.5000
2019-05-09T11:44:52.335Z,5315.6250
2019-05-09T11:45:55.341Z,5236.8750
2019-05-09T11:46:59.331Z,5220.0000
2019-05-09T11:48:02.279Z,5231.2500
2019-05-09T11:49:08.014Z,5315.6250
2019-05-09T11:50:12.304Z,5242.5000
2019-05-09T11:51:18.249Z,5197.5000
2019-05-09T11:52:23.315Z,5355.0000
2019-05-09T11:53:28.590Z,5349.3750
2019-05-09T11:54:32.307Z,1552.5000
2019-05-09T11:55:39.430Z,1276.8750
2019-05-09T11:56:43.306Z,1209.3750
2019-05-09T11:57:48.509Z,1940.6250
2019-05-09T11:58:51.285Z,1305.0000
2019-05-09T11:59:57.684Z,1096.8750
2019-05-09T12:01:02.613Z,1018.1250
2019-05-09T12:02:08.910Z,883.1250
2019-05-09T12:03:12.335Z,1136.2500
2019-05-09T12:04:15.285Z,928.1250
2019-05-09T12:05:19.433Z,1046.2500
2019-05-09T12:06:22.291Z,1423.1250
2019-05-09T12:07:28.608Z,1653.7500
2019-05-09T12:08:32.250Z,1985.6250
2019-05-09T12:09:38.550Z,1726.8750
2019-05-09T12:10:42.336Z,1108.1250
2019-05-09T12:11:44.878Z,748.1250
2019-05-09T12:12:47.841Z,444.3750
2019-05-09T12:13:51.295Z,416.2500
2019-05-09T12:14:55.304Z,472.5000
2019-05-09T12:15:58.557Z,562.5000
2019-05-09T12:17:02.319Z,2272.5000
2019-05-09T12:18:09.144Z,4218.7500
2019-05-09T12:19:13.320Z,4539.3750
2019-05-09T12:20:18.082Z,4657.5000
2019-05-09T12:21:21.341Z,4618.1250
2019-05-09T12:22:27.928Z,4072.5000
2019-05-09T12:23:31.300Z,3926.2500
2019-05-09T12:24:35.293Z,4500.0000
2019-05-09T12:25:38.780Z,4927.5000
2019-05-09T12:26:42.373Z,3273.7500
2019-05-09T12:27:48.528Z,2688.7500
2019-05-09T12:28:52.351Z,2902.5000
2019-05-09T12:29:58.068Z,3386.2500
2019-05-09T12:31:01.335Z,4775.6250
2019-05-09T12:32:04.336Z,4201.8750
2019-05-09T12:33:08.519Z,5281.8750
2019-05-09T12:34:12.316Z,911.2500
2019-05-09T12:35:18.882Z,967.5000
2019-05-09T12:36:22.289Z,3279.3750
2019-05-09T12:37:28.181Z,4505.6250
2019-05-09T12:38:31.314Z,3245.6250
2019-05-09T12:39:37.728Z,2131.8750
2019-05-09T12:40:41.323Z,781.8750
2019-05-09T12:41:44.263Z,720.0000
2019-05-09T12:42:50.046Z,3898.1250
2019-05-09T12:43:54.295Z,1440.0000